sensor_id;sensor_type;location;lat;lon;timestamp;pressure;altitude;pressure_sealevel;temperature;humidity
48606;BME280;8482;54.396;18.590;2024-01-30T16:32:59;102567.19;;;5.19;72.52
48606;BME280;8482;54.396;18.590;2024-01-30T16:35:26;102554.13;;;5.16;73.64
48606;BME280;8482;54.396;18.590;2024-01-30T16:37:52;102554.16;;;5.15;74.35
48606;BME280;8482;54.396;18.590;2024-01-30T16:40:18;102550.66;;;5.14;74.45
48606;BME280;8482;54.396;18.590;2024-01-30T16:42:43;102542.00;;;5.11;73.47
48606;BME280;8482;54.396;18.590;2024-01-30T16:45:09;102535.06;;;5.08;73.97
48606;BME280;8482;54.396;18.590;2024-01-30T16:47:35;102543.72;;;5.12;73.87
48606;BME280;8482;54.396;18.590;2024-01-30T16:50:01;102542.94;;;5.08;73.88
48606;BME280;8482;54.396;18.590;2024-01-30T16:52:27;102540.22;;;5.11;73.63
48606;BME280;8482;54.396;18.590;2024-01-30T16:54:54;102538.47;;;5.12;74.12
48606;BME280;8482;54.396;18.590;2024-01-30T16:57:22;102532.31;;;5.13;73.63
48606;BME280;8482;54.396;18.590;2024-01-30T16:59:48;102534.03;;;5.14;73.76
48606;BME280;8482;54.396;18.590;2024-01-30T17:02:14;102521.78;;;5.13;73.30
48606;BME280;8482;54.396;18.590;2024-01-30T17:04:40;102533.13;;;5.15;73.61
48606;BME280;8482;54.396;18.590;2024-01-30T17:07:06;102525.22;;;5.15;73.32
48606;BME280;8482;54.396;18.590;2024-01-30T17:09:32;102529.63;;;5.14;73.27
48606;BME280;8482;54.396;18.590;2024-01-30T17:11:58;102517.38;;;5.13;73.04
48606;BME280;8482;54.396;18.590;2024-01-30T17:14:26;102515.56;;;5.15;73.41
48606;BME280;8482;54.396;18.590;2024-01-30T17:16:53;102509.53;;;5.10;72.58
48606;BME280;8482;54.396;18.590;2024-01-30T17:19:19;102518.25;;;5.14;73.03
48606;BME280;8482;54.396;18.590;2024-01-30T17:21:45;102525.25;;;5.13;73.15
48606;BME280;8482;54.396;18.590;2024-01-30T17:24:11;102515.63;;;5.12;72.76
48606;BME280;8482;54.396;18.590;2024-01-30T17:26:37;102514.72;;;5.15;72.89
48606;BME280;8482;54.396;18.590;2024-01-30T17:29:03;102519.16;;;5.13;72.42
48606;BME280;8482;54.396;18.590;2024-01-30T17:31:29;102505.28;;;5.06;73.26
48606;BME280;8482;54.396;18.590;2024-01-30T17:33:55;102524.44;;;5.11;73.17
48606;BME280;8482;54.396;18.590;2024-01-30T17:36:20;102511.28;;;5.11;73.22
48606;BME280;8482;54.396;18.590;2024-01-30T17:38:47;102506.91;;;5.12;73.47
48606;BME280;8482;54.396;18.590;2024-01-30T17:41:13;102508.63;;;5.13;73.61
48606;BME280;8482;54.396;18.590;2024-01-30T17:43:39;102498.03;;;5.14;73.40
48606;BME280;8482;54.396;18.590;2024-01-30T17:46:05;102495.41;;;5.14;73.39
48606;BME280;8482;54.396;18.590;2024-01-30T17:48:31;102491.03;;;5.15;72.99
48606;BME280;8482;54.396;18.590;2024-01-30T17:50:57;102478.72;;;5.15;73.28
48606;BME280;8482;54.396;18.590;2024-01-30T17:53:23;102484.88;;;5.16;73.29
48606;BME280;8482;54.396;18.590;2024-01-30T17:55:49;102483.94;;;5.17;73.51
48606;BME280;8482;54.396;18.590;2024-01-30T17:58:15;102482.25;;;5.14;73.46
48606;BME280;8482;54.396;18.590;2024-01-30T18:00:40;102484.00;;;5.15;73.81
48606;BME280;8482;54.396;18.590;2024-01-30T18:03:06;102481.34;;;5.15;73.64
48606;BME280;8482;54.396;18.590;2024-01-30T18:05:33;102478.72;;;5.15;73.50
48606;BME280;8482;54.396;18.590;2024-01-30T18:07:58;102471.75;;;5.14;73.11
48606;BME280;8482;54.396;18.590;2024-01-30T18:10:24;102466.56;;;5.11;73.49
48606;BME280;8482;54.396;18.590;2024-01-30T18:12:50;102484.88;;;5.14;73.42
48606;BME280;8482;54.396;18.590;2024-01-30T18:15:19;102478.81;;;5.12;73.60
48606;BME280;8482;54.396;18.590;2024-01-30T18:17:45;102488.41;;;5.15;73.65
48606;BME280;8482;54.396;18.590;2024-01-30T18:20:11;102474.34;;;5.16;73.42
48606;BME280;8482;54.396;18.590;2024-01-30T18:22:37;102471.59;;;5.19;73.74
48606;BME280;8482;54.396;18.590;2024-01-30T18:25:08;102468.88;;;5.22;73.52
48606;BME280;8482;54.396;18.590;2024-01-30T18:27:34;102463.56;;;5.24;72.78
48606;BME280;8482;54.396;18.590;2024-01-30T18:29:59;102463.53;;;5.25;73.23
48606;BME280;8482;54.396;18.590;2024-01-30T18:32:25;102463.53;;;5.25;72.71
48606;BME280;8482;54.396;18.590;2024-01-30T18:34:51;102453.84;;;5.27;72.66
48606;BME280;8482;54.396;18.590;2024-01-30T18:37:17;102446.78;;;5.28;72.97
48606;BME280;8482;54.396;18.590;2024-01-30T18:39:43;102445.00;;;5.30;73.00
48606;BME280;8482;54.396;18.590;2024-01-30T18:42:11;102439.72;;;5.30;72.89
48606;BME280;8482;54.396;18.590;2024-01-30T18:44:36;102426.88;;;5.19;72.41
48606;BME280;8482;54.396;18.590;2024-01-30T18:47:02;102444.09;;;5.31;72.43
48606;BME280;8482;54.396;18.590;2024-01-30T18:49:28;102457.19;;;5.32;72.74
48606;BME280;8482;54.396;18.590;2024-01-30T18:51:54;102455.38;;;5.34;72.87
48606;BME280;8482;54.396;18.590;2024-01-30T18:54:21;102456.19;;;5.36;72.71
48606;BME280;8482;54.396;18.590;2024-01-30T18:56:47;102456.13;;;5.40;72.72
48606;BME280;8482;54.396;18.590;2024-01-30T18:59:12;102449.94;;;5.41;72.53
48606;BME280;8482;54.396;18.590;2024-01-30T19:01:44;102456.00;;;5.43;72.94
48606;BME280;8482;54.396;18.590;2024-01-30T19:04:11;102465.59;;;5.45;72.87
48606;BME280;8482;54.396;18.590;2024-01-30T19:06:37;102453.28;;;5.46;73.34
48606;BME280;8482;54.396;18.590;2024-01-30T19:09:04;102441.00;;;5.46;72.96
48606;BME280;8482;54.396;18.590;2024-01-30T19:11:31;102430.47;;;5.46;73.24
48606;BME280;8482;54.396;18.590;2024-01-30T19:13:57;102439.94;;;5.52;73.33
48606;BME280;8482;54.396;18.590;2024-01-30T19:16:26;102435.59;;;5.51;72.75
48606;BME280;8482;54.396;18.590;2024-01-30T19:18:51;102450.34;;;5.57;72.71
48606;BME280;8482;54.396;18.590;2024-01-30T19:21:18;102447.69;;;5.57;72.17
48606;BME280;8482;54.396;18.590;2024-01-30T19:23:44;102438.13;;;5.54;72.78
48606;BME280;8482;54.396;18.590;2024-01-30T19:26:09;102440.66;;;5.57;72.98
48606;BME280;8482;54.396;18.590;2024-01-30T19:28:35;102437.16;;;5.57;72.47
48606;BME280;8482;54.396;18.590;2024-01-30T19:31:02;102439.81;;;5.57;72.65
48606;BME280;8482;54.396;18.590;2024-01-30T19:33:28;102431.09;;;5.55;72.92
48606;BME280;8482;54.396;18.590;2024-01-30T19:35:54;102437.16;;;5.57;72.47
48606;BME280;8482;54.396;18.590;2024-01-30T19:38:20;102431.16;;;5.53;73.00
48606;BME280;8482;54.396;18.590;2024-01-30T19:40:46;102432.75;;;5.57;72.49
48606;BME280;8482;54.396;18.590;2024-01-30T19:43:12;102433.66;;;5.56;72.38
48606;BME280;8482;54.396;18.590;2024-01-30T19:45:38;102431.97;;;5.55;72.70
48606;BME280;8482;54.396;18.590;2024-01-30T19:48:04;102434.59;;;5.55;72.68
48606;BME280;8482;54.396;18.590;2024-01-30T19:50:30;102435.34;;;5.59;72.82
48606;BME280;8482;54.396;18.590;2024-01-30T19:52:56;102438.84;;;5.59;72.84
48606;BME280;8482;54.396;18.590;2024-01-30T19:55:22;102441.47;;;5.59;73.36
48606;BME280;8482;54.396;18.590;2024-01-30T19:57:48;102438.00;;;5.59;73.03
48606;BME280;8482;54.396;18.590;2024-01-30T20:00:14;102429.28;;;5.57;72.62
48606;BME280;8482;54.396;18.590;2024-01-30T20:02:42;102437.94;;;5.60;73.20
48606;BME280;8482;54.396;18.590;2024-01-30T20:05:08;102426.50;;;5.61;73.23
48606;BME280;8482;54.396;18.590;2024-01-30T20:07:34;102431.69;;;5.63;73.10
48606;BME280;8482;54.396;18.590;2024-01-30T20:10:01;102427.25;;;5.65;73.64
48606;BME280;8482;54.396;18.590;2024-01-30T20:12:27;102413.25;;;5.64;73.49
48606;BME280;8482;54.396;18.590;2024-01-30T20:14:53;102408.81;;;5.65;72.55
48606;BME280;8482;54.396;18.590;2024-01-30T20:17:19;102399.31;;;5.61;72.67
48606;BME280;8482;54.396;18.590;2024-01-30T20:19:45;102411.47;;;5.65;73.08
48606;BME280;8482;54.396;18.590;2024-01-30T20:22:11;102406.31;;;5.62;73.10
48606;BME280;8482;54.396;18.590;2024-01-30T20:24:37;102404.47;;;5.64;72.92
48606;BME280;8482;54.396;18.590;2024-01-30T20:27:03;102403.56;;;5.65;72.92
48606;BME280;8482;54.396;18.590;2024-01-30T20:29:29;102410.63;;;5.63;73.07
48606;BME280;8482;54.396;18.590;2024-01-30T20:31:56;102406.19;;;5.65;72.81
48606;BME280;8482;54.396;18.590;2024-01-30T20:34:22;102403.63;;;5.63;72.79
48606;BME280;8482;54.396;18.590;2024-01-30T20:36:48;102406.03;;;5.70;72.75
48606;BME280;8482;54.396;18.590;2024-01-30T20:39:14;102401.59;;;5.72;72.78
48606;BME280;8482;54.396;18.590;2024-01-30T20:41:42;102393.69;;;5.72;72.55
48606;BME280;8482;54.396;18.590;2024-01-30T20:44:09;102397.13;;;5.74;72.75
48606;BME280;8482;54.396;18.590;2024-01-30T20:46:35;102389.25;;;5.74;72.35
48606;BME280;8482;54.396;18.590;2024-01-30T20:49:01;102384.78;;;5.76;72.24
48606;BME280;8482;54.396;18.590;2024-01-30T20:51:27;102384.69;;;5.79;71.89
48606;BME280;8482;54.396;18.590;2024-01-30T20:53:55;102389.91;;;5.80;71.78
48606;BME280;8482;54.396;18.590;2024-01-30T20:56:21;102390.72;;;5.82;72.55
48606;BME280;8482;54.396;18.590;2024-01-30T20:58:47;102383.66;;;5.83;71.99
48606;BME280;8482;54.396;18.590;2024-01-30T21:01:13;102385.38;;;5.86;72.24
48606;BME280;8482;54.396;18.590;2024-01-30T21:03:40;102390.56;;;5.87;72.41
48606;BME280;8482;54.396;18.590;2024-01-30T21:06:07;102395.69;;;5.92;72.51
48606;BME280;8482;54.396;18.590;2024-01-30T21:08:35;102387.78;;;5.92;72.01
48606;BME280;8482;54.396;18.590;2024-01-30T21:11:01;102399.88;;;5.97;72.05
48606;BME280;8482;54.396;18.590;2024-01-30T21:13:28;102388.44;;;6.00;72.00
48606;BME280;8482;54.396;18.590;2024-01-30T21:15:54;102391.00;;;6.02;71.91
48606;BME280;8482;54.396;18.590;2024-01-30T21:18:19;102378.69;;;6.02;72.29
48606;BME280;8482;54.396;18.590;2024-01-30T21:20:46;102373.38;;;6.04;71.62
48606;BME280;8482;54.396;18.590;2024-01-30T21:23:11;102381.22;;;6.05;71.72
48606;BME280;8482;54.396;18.590;2024-01-30T21:25:39;102384.81;;;6.03;71.82
48606;BME280;8482;54.396;18.590;2024-01-30T21:28:05;102368.78;;;6.09;71.73
48606;BME280;8482;54.396;18.590;2024-01-30T21:30:34;102372.25;;;6.11;71.55
48606;BME280;8482;54.396;18.590;2024-01-30T21:32:59;102385.38;;;6.12;71.52
48606;BME280;8482;54.396;18.590;2024-01-30T21:35:25;102377.41;;;6.14;71.70
48606;BME280;8482;54.396;18.590;2024-01-30T21:37:51;102373.88;;;6.15;71.25
48606;BME280;8482;54.396;18.590;2024-01-30T21:40:17;102374.69;;;6.17;71.12
48606;BME280;8482;54.396;18.590;2024-01-30T21:42:43;102373.78;;;6.18;71.45
48606;BME280;8482;54.396;18.590;2024-01-30T21:45:12;102367.75;;;6.15;71.56
48606;BME280;8482;54.396;18.590;2024-01-30T21:47:38;102379.06;;;6.17;70.68
48606;BME280;8482;54.396;18.590;2024-01-30T21:50:05;102369.44;;;6.16;70.72
48606;BME280;8482;54.396;18.590;2024-01-30T21:52:31;102367.75;;;6.15;71.22
48606;BME280;8482;54.396;18.590;2024-01-30T21:54:57;102368.66;;;6.13;70.68
48606;BME280;8482;54.396;18.590;2024-01-30T21:57:23;102359.13;;;6.09;70.60
48606;BME280;8482;54.396;18.590;2024-01-30T21:59:49;102358.22;;;6.10;71.08
48606;BME280;8482;54.396;18.590;2024-01-30T22:02:14;102356.44;;;6.11;71.33
48606;BME280;8482;54.396;18.590;2024-01-30T22:04:40;102362.69;;;6.08;71.05
48606;BME280;8482;54.396;18.590;2024-01-30T22:07:06;102349.59;;;6.05;71.46
48606;BME280;8482;54.396;18.590;2024-01-30T22:09:32;102348.00;;;6.01;71.39
48606;BME280;8482;54.396;18.590;2024-01-30T22:11:58;102349.69;;;6.02;71.69
48606;BME280;8482;54.396;18.590;2024-01-30T22:14:24;102358.56;;;6.01;71.48
48606;BME280;8482;54.396;18.590;2024-01-30T22:16:49;102340.22;;;5.96;71.43
48606;BME280;8482;54.396;18.590;2024-01-30T22:19:15;102346.28;;;6.00;71.78
48606;BME280;8482;54.396;18.590;2024-01-30T22:21:41;102344.63;;;5.96;72.12
48606;BME280;8482;54.396;18.590;2024-01-30T22:24:07;102342.91;;;5.95;71.83
48606;BME280;8482;54.396;18.590;2024-01-30T22:26:42;102344.69;;;5.94;72.52
48606;BME280;8482;54.396;18.590;2024-01-30T22:29:09;102344.63;;;5.96;72.95
48606;BME280;8482;54.396;18.590;2024-01-30T22:31:35;102335.09;;;5.92;72.90
48606;BME280;8482;54.396;18.590;2024-01-30T22:34:01;102345.53;;;5.95;72.81
48606;BME280;8482;54.396;18.590;2024-01-30T22:36:28;102335.81;;;5.97;73.01
48606;BME280;8482;54.396;18.590;2024-01-30T22:38:55;102335.81;;;5.97;72.40
48606;BME280;8482;54.396;18.590;2024-01-30T22:41:25;102339.25;;;5.99;72.28
48606;BME280;8482;54.396;18.590;2024-01-30T22:43:51;102348.91;;;5.98;72.82
48606;BME280;8482;54.396;18.590;2024-01-30T22:46:17;102354.19;;;6.00;72.88
48606;BME280;8482;54.396;18.590;2024-01-30T22:48:43;102341.88;;;6.01;72.87
48606;BME280;8482;54.396;18.590;2024-01-30T22:51:10;102332.28;;;5.98;73.15
48606;BME280;8482;54.396;18.590;2024-01-30T22:53:36;102354.13;;;6.02;72.87
48606;BME280;8482;54.396;18.590;2024-01-30T22:56:02;102348.00;;;6.01;72.78
48606;BME280;8482;54.396;18.590;2024-01-30T22:58:28;102346.22;;;6.02;72.83
48606;BME280;8482;54.396;18.590;2024-01-30T23:00:54;102342.78;;;6.00;73.25
48606;BME280;8482;54.396;18.590;2024-01-30T23:03:20;102342.81;;;5.98;73.40
48606;BME280;8482;54.396;18.590;2024-01-30T23:05:46;102336.78;;;5.94;73.13
48606;BME280;8482;54.396;18.590;2024-01-30T23:08:12;102335.91;;;5.94;73.17
48606;BME280;8482;54.396;18.590;2024-01-30T23:10:40;102340.22;;;5.96;73.34
48606;BME280;8482;54.396;18.590;2024-01-30T23:13:06;102341.09;;;5.97;73.32
